Latest Weather Observations for Kalgoorlie-Boulder

IDW60801

Issued at 10:13 am WST Monday 18 October 2021 (issued every 10 minutes, with the page automatically refreshed every 10 minutes)

About weather observations | Map of weather stations | Latest weather observations for WA | Other Formats
Station Details ID: 012038 Name: KALGOORLIE-BOULDER AIRPORT Lat: -30.78 Lon: 121.45 Height: 365.3 m
Data from the previous 72 hours. | See also: Recent months at Kalgoorlie-Boulder
Date/Time
WST
Temp
°C
App
Temp
°C
Dew
Point
°C
Rel
Hum
%
Delta-T
°C
Wind Press
QNH
hPa
Press
MSL
hPa
Rain since
9am
mm
Dir  Spd
km/h
Gust
km/h
Spd
kts
Gust
kts
18/10:00am 26.0 24.6 8.9 34 9.5 E 6 13 3 7 1010.0 1008.9 0.0
18/09:30am 24.4 21.9 8.4 36 8.7 SE 11 17 6 9 1010.4 1009.3 0.0
18/09:00am 23.2 20.3 8.1 38 8.1 ESE 13 19 7 10 1010.5 1009.4 0.2
18/08:30am 21.7 20.1 10.2 48 6.4 SE 9 15 5 8 1010.5 1009.4 0.2
18/08:00am 19.7 17.9 10.7 56 5.0 SE 11 17 6 9 1010.6 1009.5 0.2
18/07:30am 18.4 16.3 11.0 62 4.1 SE 13 17 7 9 1010.4 1009.3 0.2
18/07:00am 16.9 14.8 11.0 68 3.2 SE 13 20 7 11 1010.2 1009.1 0.2
18/06:30am 15.4 14.1 11.2 76 2.3 SSE 9 13 5 7 1010.1 1009.0 0.2
18/06:00am 14.1 13.2 10.5 79 1.9 S 6 7 3 4 1009.8 1008.7 0.2
18/05:30am 13.1 11.8 9.9 81 1.7 SSE 7 9 4 5 1009.5 1008.4 0.2
18/05:00am 12.6 10.6 8.5 76 2.1 SSE 9 11 5 6 1009.2 1008.1 0.2
18/04:30am 12.9 10.8 6.0 63 3.3 SSE 6 7 3 4 1008.6 1007.5 0.2
18/04:00am 12.9 10.6 5.6 61 3.5 S 7 9 4 5 1008.6 1007.5 0.2
18/03:30am 13.1 10.3 5.0 58 3.8 S 9 13 5 7 1008.3 1007.2 0.2
18/03:00am 13.4 10.7 3.5 51 4.6 S 7 9 4 5 1007.8 1006.7 0.2
18/02:30am 14.5 10.9 2.7 45 5.4 S 11 13 6 7 1007.7 1006.6 0.2
18/02:00am 14.6 10.7 3.4 47 5.2 S 13 15 7 8 1007.8 1006.7 0.2
18/01:30am 14.1 11.5 4.1 51 4.7 SE 7 9 4 5 1008.1 1007.0 0.2
18/01:00am 16.0 12.8 2.8 41 6.1 S 9 11 5 6 1008.4 1007.3 0.2
18/12:30am 16.5 13.4 3.6 42 6.1 S 9 11 5 6 1008.8 1007.6 0.2
18/12:00am 17.6 14.0 3.1 38 6.8 SSW 11 13 6 7 1008.8 1007.6 0.2
 
Date/Time
WST
Temp
°C
App
Temp
°C
Dew
Point
°C
Rel
Hum
%
Delta-T
°C
Wind Press
QNH
hPa
Press
MSL
hPa
Rain since
9am
mm
Dir  Spd
km/h
Gust
km/h
Spd
kts
Gust
kts
17/11:30pm 18.0 14.1 3.5 38 6.9 SW 13 17 7 9 1009.1 1008.0 0.2
17/11:00pm 17.8 15.1 5.4 44 6.1 SW 9 11 5 6 1008.8 1007.6 0.2
17/10:30pm 19.3 17.5 1.3 30 8.3 CALM 0 0 0 0 1008.9 1007.7 0.2
17/10:00pm 20.1 17.3 2.0 30 8.5 S 6 7 3 4 1008.9 1007.7 0.2
17/09:30pm 19.5 17.1 5.2 39 7.1 SSE 7 9 4 5 1008.8 1007.6 0.2
17/09:00pm 19.2 16.6 3.0 34 7.7 S 6 7 3 4 1008.9 1007.7 0.2
17/08:30pm 19.4 18.8 7.5 46 6.2 CALM 0 0 0 0 1008.8 1007.6 0.2
17/08:00pm 21.0 19.9 5.0 35 8.0 CALM 0 0 0 0 1008.2 1007.1 0.2
17/07:30pm 22.2 20.8 5.6 34 8.5 W 2 6 1 3 1008.0 1006.9 0.2
17/07:00pm 24.5 21.5 2.0 23 10.9 W 7 9 4 5 1007.7 1006.6 0.2
17/06:30pm 25.2 21.9 0.0 19 11.8 W 7 9 4 5 1007.4 1006.3 0.2
17/06:00pm 27.1 22.6 0.0 17 12.9 W 13 19 7 10 1007.2 1006.1 0.2
17/05:30pm 28.1 23.4 -1.9 14 13.9 NNW 13 19 7 10 1007.0 1005.9 0.2
17/05:00pm 28.9 23.6 -3.3 12 14.7 NW 15 20 8 11 1007.0 1005.9 0.2
17/04:30pm 29.2 24.6 -1.0 14 14.3 W 13 19 7 10 1006.9 1005.8 0.2
17/04:00pm 28.9 24.1 -2.3 13 14.5 NW 13 26 7 14 1006.9 1005.8 0.2
17/03:30pm 29.4 23.8 0.1 15 14.2 NW 19 32 10 17 1007.0 1005.9 0.2
17/03:00pm 29.3 24.8 0.0 15 14.2 W 13 28 7 15 1007.2 1006.1 0.2
17/02:30pm 28.9 23.8 0.6 16 13.8 W 17 28 9 15 1007.4 1006.3 0.2
17/02:00pm 28.7 23.2 0.4 16 13.8 WNW 19 28 10 15 1007.6 1006.5 0.2
17/01:30pm 28.6 23.6 1.2 17 13.5 NW 17 35 9 19 1008.0 1006.9 0.2
17/01:00pm 28.5 23.5 1.1 17 13.5 W 17 30 9 16 1008.3 1007.2 0.2
17/12:30pm 27.9 22.5 1.4 18 13.0 NW 19 30 10 16 1008.9 1007.7 0.2
17/12:00pm 27.2 21.5 0.8 18 12.8 WNW 20 32 11 17 1009.2 1008.1 0.2
17/11:30am 26.4 21.2 3.6 23 11.5 WNW 20 32 11 17 1009.5 1008.4 0.2
17/11:00am 25.1 20.8 5.3 28 10.2 WNW 17 24 9 13 1010.0 1008.9 0.2
17/10:30am 23.7 20.0 6.5 33 9.0 NW 15 22 8 12 1010.5 1009.4 0.2
17/10:00am 22.1 18.1 6.7 37 8.0 WNW 17 22 9 12 1010.8 1009.7 0.2
17/09:30am 20.8 17.8 7.8 43 6.8 WNW 13 22 7 12 1010.9 1009.8 0.2
17/09:00am 20.3 18.1 9.5 50 5.9 W 11 17 6 9 1010.8 1009.7 7.0
17/08:30am 19.3 16.7 9.2 52 5.4 WSW 13 19 7 10 1010.8 1009.7 7.0
17/08:00am 17.7 15.3 8.6 55 4.8 WSW 11 17 6 9 1010.6 1009.5 7.0
17/07:30am 16.3 14.6 9.7 65 3.5 SW 9 13 5 7 1010.6 1009.5 7.0
17/07:00am 15.4 12.2 10.0 70 2.9 SW 17 20 9 11 1010.5 1009.4 7.0
17/06:30am 14.8 11.7 10.2 74 2.4 WSW 17 24 9 13 1010.3 1009.2 7.0
17/06:00am 13.7 11.6 9.6 76 2.1 W 11 15 6 8 1010.1 1009.0 7.0
17/05:30am 11.9 10.4 9.1 83 1.4 W 7 9 4 5 1009.7 1008.6 7.0
17/05:00am 12.7 11.3 8.8 77 2.0 WNW 6 7 3 4 1009.4 1008.3 7.0
17/04:30am 13.0 10.4 9.3 78 1.9 WSW 13 17 7 9 1009.1 1008.0 7.0
17/04:00am 12.7 11.0 9.7 82 1.6 W 9 11 5 6 1009.0 1007.8 7.0
17/03:30am 13.8 11.6 9.5 75 2.2 NW 11 13 6 7 1008.9 1007.7 7.0
17/03:00am 14.5 12.7 9.5 72 2.6 WNW 9 9 5 5 1008.6 1007.5 7.0
17/02:30am 14.9 13.2 9.7 71 2.7 WNW 9 11 5 6 1008.4 1007.3 7.0
17/02:00am 15.7 13.3 10.0 69 3.0 W 13 19 7 10 1008.5 1007.4 7.0
17/01:30am 14.5 12.3 10.7 78 2.0 W 13 17 7 9 1008.3 1007.2 7.0
17/01:00am 14.7 13.3 10.9 78 2.1 NNW 9 13 5 7 1008.2 1007.1 7.0
17/12:30am 15.1 13.8 11.1 77 2.2 NNW 9 13 5 7 1008.3 1007.2 7.0
17/12:00am 15.1 13.4 11.1 77 2.2 NNW 11 15 6 8 1008.4 1007.3 7.0
 
Date/Time
WST
Temp
°C
App
Temp
°C
Dew
Point
°C
Rel
Hum
%
Delta-T
°C
Wind Press
QNH
hPa
Press
MSL
hPa
Rain since
9am
mm
Dir  Spd
km/h
Gust
km/h
Spd
kts
Gust
kts
16/11:30pm 15.1 13.2 11.7 80 1.9 NNW 13 17 7 9 1008.5 1007.4 7.0
16/11:00pm 14.7 13.4 12.4 86 1.3 N 11 15 6 8 1008.5 1007.4 7.0
16/10:30pm 14.5 13.7 13.0 91 0.8 N 9 13 5 7 1009.0 1007.8 7.0
16/10:00pm 15.1 15.6 12.8 86 1.3 SE 2 7 1 4 1009.0 1007.8 7.0
16/09:30pm 16.0 15.6 13.1 83 1.6 SSE 7 9 4 5 1009.1 1008.0 7.0
16/09:00pm 16.6 16.1 12.8 78 2.2 NE 7 9 4 5 1009.1 1008.0 7.0
16/08:30pm 19.0 16.8 10.8 59 4.5 WSW 13 24 7 13 1009.0 1007.8 7.0
16/08:00pm 19.7 18.0 9.9 53 5.3 WNW 9 13 5 7 1008.3 1007.2 7.0
16/07:30pm 18.8 16.9 11.9 64 3.9 NNW 13 20 7 11 1008.9 1007.7 7.0
16/07:00pm 18.4 16.5 11.9 66 3.7 NNE 13 17 7 9 1008.2 1007.1 7.0
16/06:30pm 18.2 17.0 12.9 71 3.0 NE 11 15 6 8 1008.3 1007.2 7.0
16/06:00pm 18.3 17.4 13.8 75 2.6 SSE 11 13 6 7 1008.0 1006.9 7.0
16/05:30pm 18.7 17.5 12.9 69 3.3 ESE 11 15 6 8 1007.3 1006.2 7.0
16/05:00pm 19.1 18.1 13.5 70 3.3 E 11 15 6 8 1006.6 1005.4 7.0
16/04:30pm 18.3 16.8 13.2 72 2.9 S 13 19 7 10 1006.8 1005.7 7.0
16/04:00pm 16.6 14.3 14.1 85 1.5 S 19 26 10 14 1006.9 1005.8 7.0
16/03:55pm 16.4 13.4 13.7 84 1.5 S 22 28 12 15 1006.8 1005.7 7.0
16/03:52pm 16.6 13.1 13.3 81 1.9 SSW 24 35 13 19 1006.7 1005.6 7.0
16/03:44pm 16.5 11.4 13.2 81 1.9 WSW 32 44 17 24 1007.8 1006.7 6.6
16/03:30pm 16.1 8.8 12.8 81 1.9 W 43 69 23 37 1007.4 1006.3 2.6
16/03:29pm 16.4 10.2 12.6 78 2.1 W 37 67 20 36 1007.2 1006.1 2.0
16/03:26pm 19.7 15.1 10.9 57 4.9 WNW 26 61 14 33 1006.8 1005.7 0.0
16/03:23pm 25.5 22.1 7.6 32 9.7 NW 15 61 8 33 1006.4 1005.2 0.0
16/03:03pm 26.9 21.1 4.6 24 11.5 NNE 24 32 13 17 1004.6 1003.5 0.0
16/03:00pm 27.0 21.6 4.7 24 11.6 NE 22 32 12 17 1004.6 1003.5 0.0
16/02:30pm 28.2 23.5 5.1 23 12.1 NNE 19 30 10 16 1005.0 1003.9 0.0
16/02:00pm 27.5 22.7 5.7 25 11.5 NNE 20 32 11 17 1005.9 1004.7 0.0
16/01:30pm 26.5 21.0 6.0 27 10.8 NNE 24 32 13 17 1006.5 1005.3 0.0
16/01:00pm 25.9 20.0 6.0 28 10.5 N 26 33 14 18 1007.1 1006.0 0.0
16/12:30pm 25.3 18.6 5.5 28 10.3 N 30 43 16 23 1007.3 1006.2 0.0
16/12:03pm 26.1 19.0 3.4 23 11.4 NW 30 56 16 30 1007.5 1006.4 0.0
16/12:00pm 26.4 20.0 3.0 22 11.7 NW 26 43 14 23 1007.4 1006.3 0.0
16/11:30am 27.2 19.7 3.7 22 12.0 NW 32 48 17 26 1007.3 1006.2 0.0
16/11:19am 27.4 20.3 3.8 22 12.0 NNW 30 48 16 26 1007.4 1006.3 0.0
16/11:12am 27.8 22.0 4.2 22 12.2 NNW 24 41 13 22 1007.4 1006.3 0.0
16/11:00am 26.6 22.4 1.8 20 12.2 N 13 19 7 10 1007.7 1006.6 0.0
16/10:30am 25.3 20.7 1.4 21 11.5 N 15 24 8 13 1008.2 1007.1 0.0
16/10:00am 24.9 19.5 1.1 21 11.4 NNE 19 26 10 14 1008.3 1007.2 0.0
16/09:30am 24.4 18.8 1.3 22 11.0 NNE 20 30 11 16 1008.5 1007.4 0.0
16/09:00am 24.4 18.7 0.7 21 11.2 NNE 20 32 11 17 1008.6 1007.5 0.0
16/08:30am 23.8 18.1 0.8 22 10.8 NNE 20 30 11 16 1009.1 1008.0 0.0
16/08:00am 23.3 17.6 0.4 22 10.7 NE 20 30 11 16 1009.3 1008.2 0.0
16/07:30am 21.0 15.2 0.2 25 9.5 NE 20 35 11 19 1009.3 1008.2 0.0
16/07:00am 20.3 14.2 0.2 26 9.1 NE 22 33 12 18 1009.6 1008.5 0.0
16/06:30am 18.6 12.8 0.2 29 8.2 ENE 20 33 11 18 1009.4 1008.3 0.0
16/06:00am 17.4 12.3 0.6 32 7.5 E 17 24 9 13 1009.7 1008.6 0.0
16/05:30am 17.0 12.2 0.2 32 7.4 E 15 30 8 16 1009.8 1008.7 0.0
16/05:00am 17.4 12.2 0.1 31 7.7 E 17 28 9 15 1010.0 1008.9 0.0
16/04:30am 17.6 12.4 0.3 31 7.7 ENE 17 24 9 13 1009.9 1008.8 0.0
16/04:00am 17.8 12.3 0.5 31 7.7 ENE 19 28 10 15 1009.7 1008.6 0.0
16/03:30am 17.7 12.0 0.4 31 7.7 NE 20 32 11 17 1009.9 1008.8 0.0
16/03:00am 17.9 13.2 0.6 31 7.8 ENE 15 24 8 13 1009.8 1008.7 0.0
16/02:30am 18.0 12.4 0.2 30 7.9 ENE 19 28 10 15 1009.8 1008.7 0.0
16/02:00am 18.3 12.8 0.4 30 8.0 ENE 19 32 10 17 1010.1 1009.0 0.0
16/01:30am 18.7 13.2 0.3 29 8.2 ENE 19 26 10 14 1010.4 1009.3 0.0
16/01:00am 18.7 13.5 0.3 29 8.3 ENE 17 28 9 15 1011.0 1009.9 0.0
16/12:30am 19.4 13.9 0.4 28 8.6 ENE 19 32 10 17 1011.2 1010.1 0.0
16/12:00am 20.0 14.5 0.5 27 8.9 ENE 19 28 10 15 1011.5 1010.5 0.0
 
Date/Time
WST
Temp
°C
App
Temp
°C
Dew
Point
°C
Rel
Hum
%
Delta-T
°C
Wind Press
QNH
hPa
Press
MSL
hPa
Rain since
9am
mm
Dir  Spd
km/h
Gust
km/h
Spd
kts
Gust
kts
15/11:30pm 20.6 14.4 -0.1 25 9.4 E 22 30 12 16 1011.3 1010.2 0.0
15/11:00pm 20.9 14.0 0.2 25 9.4 E 26 37 14 20 1011.4 1010.4 0.0
15/10:30pm 21.0 14.5 0.2 25 9.5 ENE 24 33 13 18 1012.3 1011.2 0.0
15/10:00pm 21.4 14.2 0.6 25 9.6 ENE 28 44 15 24 1012.7 1011.6 0.0
15/09:30pm 21.8 15.3 0.4 24 9.9 ENE 24 39 13 21 1013.0 1011.9 0.0
15/09:00pm 22.3 16.2 0.2 23 10.2 E 22 32 12 17 1013.2 1012.1 0.0
15/08:30pm 23.0 17.4 0.2 22 10.6 ENE 19 28 10 15 1013.3 1012.2 0.0
15/08:00pm 23.3 18.1 -0.2 21 10.8 E 17 24 9 13 1013.2 1012.1 0.0
15/07:30pm 23.3 18.4 -0.2 21 10.8 E 15 22 8 12 1013.2 1012.1 0.0
15/07:00pm 23.7 18.9 0.1 21 11.0 E 15 20 8 11 1013.0 1011.9 0.0
15/06:30pm 24.4 18.8 0.0 20 11.4 E 19 32 10 17 1012.6 1011.5 0.0
15/06:00pm 24.9 20.7 -1.0 18 11.9 ENE 11 13 6 7 1012.5 1011.4 0.0
15/05:30pm 25.7 21.8 -1.2 17 12.4 NE 9 17 5 9 1012.3 1011.2 0.0
15/05:00pm 26.2 22.0 -0.8 17 12.6 ENE 11 17 6 9 1012.4 1011.3 0.0
15/04:30pm 26.6 23.2 -0.4 17 12.7 NE 7 17 4 9 1012.4 1011.3 0.0
15/04:00pm 26.9 23.1 -1.0 16 13.0 NE 9 17 5 9 1012.4 1011.3 0.0
15/03:30pm 26.5 22.1 0.3 18 12.5 NE 13 20 7 11 1012.5 1011.4 0.0
15/03:00pm 26.9 22.2 0.6 18 12.6 NNW 15 24 8 13 1012.6 1011.5 0.0
15/02:30pm 26.8 22.5 1.3 19 12.4 NE 13 24 7 13 1012.9 1011.8 0.0
15/02:00pm 26.8 22.3 2.0 20 12.2 ENE 15 32 8 17 1013.2 1012.1 0.0
15/01:30pm 26.3 22.5 1.6 20 12.0 E 11 22 6 12 1013.6 1012.5 0.0
15/01:00pm 25.2 20.2 1.3 21 11.5 NE 17 26 9 14 1014.2 1013.2 0.0
15/12:30pm 24.9 20.1 2.4 23 11.0 NNE 17 24 9 13 1015.0 1013.9 0.0
15/12:00pm 23.9 19.0 2.1 24 10.5 NE 17 30 9 16 1015.7 1014.6 0.0
15/11:30am 24.1 19.4 3.4 26 10.3 NNE 17 24 9 13 1016.2 1015.2 0.0
15/11:00am 23.3 18.1 2.7 26 10.0 NE 19 26 10 14 1016.8 1015.8 0.0
15/10:30am 22.4 17.9 4.0 30 9.1 NE 17 28 9 15 1017.3 1016.3 0.0

Other formats

Comma delimited format used in spreadsheet applications
http://www.bom.gov.au/fwo/IDW60801/IDW60801.94637.axf

JavaScript Object Notation format (JSON) in row-major order
http://www.bom.gov.au/fwo/IDW60801/IDW60801.94637.json

Data quality

Most of these data are generated automatically and are frequently updated. Quality checks on data are not normally performed. It is possible for incorrect values to appear. Refer to information at About Latest Weather Observations and please check the disclaimer before using these data.